Damascus, Arkansas
Current Conditions -  °F | °C
As of 4:55 PM on Saturday 20 Dec 2014 (Local Time) from KCCA Reporting Station
Overcast Overcast  
Wind Chill: 46°   Ceiling: 2100
Heat Index: 46°   Visibility: 7mi
Dew Point: 39°   Wind: 0mph
Humidity: 76%   Direction: NA
Pressure: 30.24"   Gusts: NA
Location:  35.36°N, 92.41°W
Report Text: KCCA 202255Z AUTO 00000KT 7SM OVC021 08/04 A3024 RMK AO2
Loading
Personal Weather Stations






























Interactive Weather Map New forecast layout! Learn more

10-Day Weather Forecast

Advertisements
Track Severe Weather on mobile